createdAt,value
2022-11-17T00:06:38.559Z,1.57
2022-11-17T00:16:44.251Z,1.59
2022-11-17T00:27:02.461Z,1.60
2022-11-17T00:37:09.392Z,1.56
2022-11-17T00:47:15.090Z,1.54
2022-11-17T00:57:20.790Z,1.51
2022-11-17T01:07:26.511Z,1.48
2022-11-17T01:17:32.268Z,1.46
2022-11-17T01:27:38.506Z,1.45
2022-11-17T01:37:44.218Z,1.45
2022-11-17T01:47:53.848Z,1.44
2022-11-17T01:58:03.393Z,1.40
2022-11-17T02:08:10.471Z,1.38
2022-11-17T02:18:16.912Z,1.33
2022-11-17T02:28:25.255Z,1.31
2022-11-17T02:38:40.473Z,1.32
2022-11-17T02:48:50.710Z,1.31
2022-11-17T02:59:01.665Z,1.23
2022-11-17T03:09:16.922Z,1.14
2022-11-17T03:19:29.774Z,1.06
2022-11-17T03:29:38.061Z,0.97
2022-11-17T03:39:49.342Z,0.88
2022-11-17T03:49:59.558Z,0.80
2022-11-17T04:00:08.243Z,0.73
2022-11-17T04:10:16.174Z,0.68
2022-11-17T04:20:21.870Z,0.61
2022-11-17T04:30:27.531Z,0.53
2022-11-17T04:40:53.120Z,0.46
2022-11-17T04:50:59.190Z,0.36
2022-11-17T05:01:14.029Z,0.27
2022-11-17T05:11:39.872Z,0.24
2022-11-17T05:21:45.682Z,0.22
2022-11-17T05:31:51.391Z,0.19
2022-11-17T05:41:56.997Z,0.16
2022-11-17T05:52:02.620Z,0.17
2022-11-17T06:02:11.726Z,0.14
2022-11-17T06:12:17.393Z,0.12
2022-11-17T06:22:23.160Z,0.14
2022-11-17T06:32:30.870Z,0.17
2022-11-17T06:42:54.284Z,0.17
2022-11-17T06:53:01.055Z,0.23
2022-11-17T07:03:09.145Z,0.30
2022-11-17T07:13:14.737Z,0.39
2022-11-17T07:23:20.290Z,0.43
2022-11-17T07:33:25.888Z,0.50
2022-11-17T07:43:31.889Z,0.57
2022-11-17T07:53:37.640Z,0.60
2022-11-17T08:03:43.443Z,0.52
2022-11-17T08:13:50.142Z,0.47
2022-11-17T08:23:56.357Z,0.46
2022-11-17T08:34:01.963Z,0.48
2022-11-17T08:44:08.163Z,0.49
2022-11-17T08:54:14.858Z,0.54
2022-11-17T09:04:20.876Z,0.60
2022-11-17T09:14:27.323Z,0.65
2022-11-17T09:24:32.937Z,0.61
2022-11-17T09:34:38.642Z,0.52
2022-11-17T09:44:49.060Z,0.51
2022-11-17T09:54:58.316Z,0.46
2022-11-17T10:05:04.539Z,0.54
2022-11-17T10:15:26.348Z,0.50
2022-11-17T10:25:40.187Z,0.54
2022-11-17T10:35:58.055Z,0.49
2022-11-17T10:46:13.557Z,0.35
2022-11-17T10:56:22.072Z,0.29
2022-11-17T11:06:29.808Z,0.24
2022-11-17T11:16:35.422Z,0.32
2022-11-17T11:26:58.544Z,0.38
2022-11-17T11:37:09.196Z,0.23
2022-11-17T11:47:26.743Z,0.09
2022-11-17T11:57:37.582Z,-0.05
2022-11-17T12:07:49.616Z,-0.24
2022-11-17T12:18:01.766Z,-0.28
2022-11-17T12:28:31.299Z,-0.37
2022-11-17T12:38:43.642Z,-0.42
2022-11-17T12:49:01.013Z,-0.42
2022-11-17T12:59:33.489Z,-0.50
2022-11-17T13:09:39.376Z,-0.53
2022-11-17T13:19:45.840Z,-0.53
2022-11-17T13:29:51.828Z,-0.61
2022-11-17T13:39:59.761Z,-0.69
2022-11-17T13:50:41.294Z,-0.76
2022-11-17T14:00:53.547Z,-0.87
2022-11-17T14:11:14.767Z,-0.87
2022-11-17T14:21:20.388Z,-0.88
2022-11-17T14:31:25.951Z,-0.86
2022-11-17T14:41:31.817Z,-0.93
2022-11-17T14:51:38.007Z,-1.07
2022-11-17T15:01:43.724Z,-1.16
2022-11-17T15:11:49.358Z,-1.27
2022-11-17T15:21:54.841Z,-1.37
2022-11-17T15:32:00.494Z,-1.40
2022-11-17T15:42:06.240Z,-1.46
2022-11-17T15:52:12.117Z,-1.49
2022-11-17T16:02:17.772Z,-1.50
2022-11-17T16:12:23.926Z,-1.53
2022-11-17T16:22:29.614Z,-1.52
2022-11-17T16:32:35.633Z,-1.54
2022-11-17T16:42:41.405Z,-1.57
2022-11-17T16:52:47.039Z,-1.56
2022-11-17T17:02:52.709Z,-1.54
2022-11-17T17:12:58.398Z,-1.54
2022-11-17T17:23:03.992Z,-1.56
2022-11-17T17:33:09.577Z,-1.65
2022-11-17T17:43:15.173Z,-1.76
2022-11-17T17:53:20.887Z,-1.81
2022-11-17T18:03:26.481Z,-1.85
2022-11-17T18:13:34.373Z,-1.87
2022-11-17T18:23:40.781Z,-1.91
2022-11-17T18:33:45.649Z,-1.93
2022-11-17T18:43:52.431Z,-1.98
2022-11-17T18:53:59.338Z,-2.05
2022-11-17T19:04:05.571Z,-2.14
2022-11-17T19:14:11.285Z,-2.19
2022-11-17T19:24:17.282Z,-2.20
2022-11-17T19:34:23.010Z,-2.21
2022-11-17T19:44:30.554Z,-2.16
2022-11-17T19:54:36.678Z,-2.14
2022-11-17T20:04:43.010Z,-2.20
2022-11-17T20:14:47.451Z,-2.29
2022-11-17T20:24:53.350Z,-2.32
2022-11-17T20:34:59.388Z,-2.29
2022-11-17T20:45:05.354Z,-2.25
2022-11-17T20:55:11.281Z,-2.25
2022-11-17T21:05:16.987Z,-2.23
2022-11-17T21:15:22.874Z,-2.23
2022-11-17T21:25:28.787Z,-2.27
2022-11-17T21:35:34.886Z,-2.27
2022-11-17T21:45:40.831Z,-2.30
2022-11-17T21:55:46.809Z,-2.29
2022-11-17T22:05:54.826Z,-2.34
2022-11-17T22:16:11.572Z,-2.45
2022-11-17T22:26:17.200Z,-2.48
2022-11-17T22:36:24.642Z,-2.51
2022-11-17T22:46:30.947Z,-2.52
2022-11-17T22:56:37.676Z,-2.50
2022-11-17T23:06:43.304Z,-2.49
2022-11-17T23:16:49.051Z,-2.45
2022-11-17T23:26:54.759Z,-2.48
2022-11-17T23:37:03.725Z,-2.52
2022-11-17T23:47:09.756Z,-2.52
2022-11-17T23:57:15.687Z,-2.67
